Other Surface Observations
Issued by NWS Great Falls, MT

Home | Current Version | Previous Version | Text Only | Print | Product List | Glossary On
Versions: 1 2 3 4 5 6 7 8 9 10 11 12 13 14 15 16 17 18 19 20 21 22 23 24 25 26 27 28 29 30 31 32 33 34 35 36 37 38 39 40 41 42 43 44 45 46 47 48 49 50
071
SXUS55 KTFX 240641
OSOTFX

AREA AWOS OBSERVATIONS
NATIONAL WEATHER SERVICE GREAT FALLS MT
1241 AM MDT Thu May 24 2018

METAR KCII 240640Z AUTO 23005KT 10SM 12/09 A2987 RMK A01
METAR K6S0 240640Z AUTO 24011KT 10SM CLR 12/08 A2994 RMK A01
METAR K6S8 240640Z AUTO 24005KT 10SM 13/11 A2990 RMK A01
METAR K7S6 240635Z AUTO 17008KT 10SM 10/08 A2993 RMK A01
METAR K7S0 240640Z AUTO 00000KT 10SM 15/14 A2988 RMK A01



USA.gov is the U.S. government's official web portal to all federal, state and local government web resources and services.